Time;durP1;ratioP1;P1;durP2;ratioP2;P2;SDS_P1;SDS_P2;PMS_P1;PMS_P2;Temp;Humidity;BMP_temperature;BMP_pressure;BME280_temperature;BME280_humidity;BME280_pressure;Samples;Min_cycle;Max_cycle;Signal;HPM_P1;HPM_P2
2023/09/05 00:02:15;;;;;;;6.45;4.10;;;;;;;17.93;88.13;101879.25;5029688;28;20098;-74
2023/09/05 00:04:46;;;;;;;6.93;4.85;;;;;;;17.93;88.28;101880.13;5037462;28;20205;-78
2023/09/05 00:07:14;;;;;;;8.50;4.78;;;;;;;17.92;90.07;101878.41;5031516;28;20108;-74
2023/09/05 00:09:42;;;;;;;6.28;4.50;;;;;;;17.89;89.66;101885.75;5034539;28;20942;-75
2023/09/05 00:12:09;;;;;;;6.35;4.60;;;;;;;17.86;89.63;101878.81;5063795;28;20114;-76
2023/09/05 00:14:37;;;;;;;6.05;3.95;;;;;;;17.85;90.05;101876.28;5048820;28;20127;-75
2023/09/05 00:17:05;;;;;;;8.65;4.40;;;;;;;17.81;90.64;101870.31;5034488;28;20072;-79
2023/09/05 00:19:34;;;;;;;6.25;4.22;;;;;;;17.81;90.27;101869.47;5052753;28;20120;-78
2023/09/05 00:22:04;;;;;;;5.65;4.38;;;;;;;17.82;90.52;101865.81;5034827;28;20532;-75
2023/09/05 00:24:36;;;;;;;8.38;4.82;;;;;;;17.81;90.65;101862.31;5066721;28;20067;-76
2023/09/05 00:27:13;;;;;;;6.60;4.63;;;;;;;17.79;91.18;101861.59;5048837;28;20078;-78
2023/09/05 00:29:42;;;;;;;5.97;4.18;;;;;;;17.79;91.81;101858.06;5048575;28;20045;-76
2023/09/05 00:32:10;;;;;;;7.65;4.72;;;;;;;17.78;91.75;101856.34;5049754;28;20113;-76
2023/09/05 00:34:38;;;;;;;8.95;4.35;;;;;;;17.76;92.57;101859.13;5033584;28;20106;-73
2023/09/05 00:37:07;;;;;;;7.68;4.57;;;;;;;17.70;92.68;101855.03;5065274;28;20032;-76
2023/09/05 00:39:40;;;;;;;7.20;4.40;;;;;;;17.68;93.34;101859.63;5048572;28;20046;-78
2023/09/05 00:42:10;;;;;;;6.35;4.63;;;;;;;17.63;92.99;101858.22;5065386;28;20088;-77
2023/09/05 00:44:42;;;;;;;9.80;4.93;;;;;;;17.60;93.38;101856.63;5048523;28;20037;-75
2023/09/05 00:47:11;;;;;;;7.80;4.00;;;;;;;17.59;93.44;101856.75;5044974;28;20068;-79
2023/09/05 00:49:47;;;;;;;6.43;4.03;;;;;;;17.58;93.91;101863.03;5051814;28;20094;-73
2023/09/05 00:52:18;;;;;;;5.82;3.83;;;;;;;17.55;94.45;101861.41;5048408;28;20041;-73
2023/09/05 00:54:45;;;;;;;4.97;4.25;;;;;;;17.52;94.87;101856.31;5049917;28;20151;-78
2023/09/05 00:57:19;;;;;;;8.38;4.57;;;;;;;17.50;94.37;101852.91;5035809;28;20048;-73
2023/09/05 00:59:46;;;;;;;6.53;4.55;;;;;;;17.50;95.35;101844.06;5050651;28;20125;-75
2023/09/05 01:02:15;;;;;;;5.65;4.57;;;;;;;17.51;96.47;101840.44;5043870;28;20087;-72
2023/09/05 01:04:43;;;;;;;5.88;4.07;;;;;;;17.48;95.81;101844.19;5037886;28;20526;-74
2023/09/05 01:07:36;;;;;;;8.82;4.80;;;;;;;17.46;96.66;101846.06;5047450;28;20123;-74
2023/09/05 01:10:13;;;;;;;6.30;4.55;;;;;;;17.42;96.33;101833.94;5048421;28;20171;-74
2023/09/05 01:12:41;;;;;;;6.72;4.40;;;;;;;17.38;96.65;101832.44;5031412;28;20037;-75
2023/09/05 01:15:08;;;;;;;7.00;4.60;;;;;;;17.37;96.94;101830.72;5032066;28;20048;-77
2023/09/05 01:17:36;;;;;;;5.68;4.32;;;;;;;17.34;97.58;101831.81;5047089;28;20175;-78
2023/09/05 01:20:06;;;;;;;5.22;4.30;;;;;;;17.31;97.98;101826.69;5062810;28;20131;-73
2023/09/05 01:22:50;;;;;;;7.85;4.72;;;;;;;17.29;99.27;101820.63;5032355;28;20044;-72
2023/09/05 01:25:18;;;;;;;6.15;4.15;;;;;;;17.28;100.00;101826.88;5064072;28;20056;-75
2023/09/05 01:27:48;;;;;;;5.10;4.57;;;;;;;17.28;99.49;101829.53;5048259;28;20153;-75
2023/09/05 01:30:17;;;;;;;4.82;3.92;;;;;;;17.26;99.82;101825.31;5064011;28;20513;-74
2023/09/05 01:32:44;;;;;;;7.43;5.40;;;;;;;17.23;100.00;101825.50;5027592;28;20124;-75
2023/09/05 01:35:13;;;;;;;7.72;4.40;;;;;;;17.23;99.89;101833.47;5064065;28;20048;-75
2023/09/05 01:37:41;;;;;;;10.48;4.60;;;;;;;17.24;100.00;101832.53;5045641;28;20496;-75
2023/09/05 01:40:08;;;;;;;8.85;4.70;;;;;;;17.20;99.79;101824.75;5060682;28;20072;-74
2023/09/05 01:42:38;;;;;;;7.70;4.30;;;;;;;17.20;100.00;101816.78;5059379;28;20044;-73
2023/09/05 01:45:07;;;;;;;6.70;4.35;;;;;;;17.17;100.00;101814.31;5041317;28;20132;-75
2023/09/05 01:47:35;;;;;;;7.00;4.10;;;;;;;17.14;100.00;101811.00;5048874;28;20041;-76
2023/09/05 01:50:03;;;;;;;7.35;4.60;;;;;;;17.10;100.00;101818.34;5063703;28;20471;-74
2023/09/05 01:52:30;;;;;;;5.78;4.50;;;;;;;17.07;100.00;101813.25;5031618;28;20093;-74
2023/09/05 01:54:58;;;;;;;6.22;4.05;;;;;;;17.06;100.00;101816.00;5069126;28;20040;-79
2023/09/05 01:57:26;;;;;;;5.97;4.35;;;;;;;17.05;100.00;101815.13;5060905;28;20157;-72
2023/09/05 01:59:54;;;;;;;6.03;4.43;;;;;;;17.04;100.00;101812.59;5057189;28;20075;-75
2023/09/05 02:02:21;;;;;;;8.25;5.15;;;;;;;17.02;100.00;101812.72;5067407;28;20044;-72
2023/09/05 02:04:49;;;;;;;6.80;4.20;;;;;;;17.00;100.00;101808.44;5050318;28;20132;-74
2023/09/05 02:07:18;;;;;;;6.72;3.90;;;;;;;16.98;100.00;101813.00;5067251;28;20045;-75
2023/09/05 02:09:45;;;;;;;5.13;4.30;;;;;;;16.95;100.00;101804.28;5046585;28;20048;-75
2023/09/05 02:12:14;;;;;;;6.25;4.57;;;;;;;16.95;100.00;101806.06;5065384;28;20064;-74
2023/09/05 02:14:47;;;;;;;5.93;4.10;;;;;;;16.93;100.00;101806.19;5048744;28;20503;-75
2023/09/05 02:17:20;;;;;;;7.55;4.40;;;;;;;16.93;100.00;101805.31;5048116;28;20564;-75
2023/09/05 02:19:48;;;;;;;6.75;4.50;;;;;;;16.90;100.00;101798.41;5027999;28;20063;-75
2023/09/05 02:22:15;;;;;;;5.22;4.32;;;;;;;16.88;100.00;101794.13;5047352;28;20079;-72
2023/09/05 02:24:42;;;;;;;5.40;4.07;;;;;;;16.86;100.00;101796.06;5044960;28;20649;-72
2023/09/05 02:27:10;;;;;;;5.53;3.92;;;;;;;16.85;100.00;101792.53;5047767;28;20139;-77
2023/09/05 02:29:37;;;;;;;7.00;4.70;;;;;;;16.85;100.00;101781.91;5029555;28;20045;-78
2023/09/05 02:32:05;;;;;;;5.63;4.28;;;;;;;16.85;100.00;101779.25;5047168;28;20044;-76
2023/09/05 02:34:32;;;;;;;10.25;4.60;;;;;;;16.85;100.00;101773.94;5067935;28;20090;-75
2023/09/05 02:37:00;;;;;;;4.82;4.32;;;;;;;16.86;100.00;101772.13;5071226;28;20080;-76
2023/09/05 02:39:28;;;;;;;7.75;4.22;;;;;;;16.84;100.00;101769.56;5051498;28;20471;-77
2023/09/05 02:41:55;;;;;;;5.05;3.95;;;;;;;16.83;100.00;101769.66;5069007;28;20078;-77
2023/09/05 02:44:22;;;;;;;6.38;4.28;;;;;;;16.84;100.00;101768.69;5049843;28;20106;-77
2023/09/05 02:46:51;;;;;;;6.80;4.18;;;;;;;16.83;100.00;101775.81;5071101;28;20084;-77
2023/09/05 02:49:19;;;;;;;6.13;3.70;;;;;;;16.82;100.00;101779.44;5046846;28;20135;-74
2023/09/05 02:51:47;;;;;;;4.75;3.58;;;;;;;16.82;100.00;101778.59;5041118;28;20193;-76
2023/09/05 02:54:15;;;;;;;4.53;3.60;;;;;;;16.81;100.00;101780.41;5051045;28;20056;-75
2023/09/05 02:56:42;;;;;;;4.82;3.50;;;;;;;16.81;100.00;101788.38;5062151;28;20511;-75
2023/09/05 02:59:09;;;;;;;5.07;4.07;;;;;;;16.80;100.00;101784.03;5049278;28;20056;-76
2023/09/05 03:01:37;;;;;;;4.85;4.15;;;;;;;16.80;100.00;101791.16;5051524;28;20041;-76
2023/09/05 03:04:04;;;;;;;6.43;4.20;;;;;;;16.78;100.00;101780.59;5049493;28;20385;-75
2023/09/05 03:06:32;;;;;;;5.93;4.03;;;;;;;16.78;100.00;101783.25;5065710;28;20052;-74
2023/09/05 03:09:03;;;;;;;6.80;4.18;;;;;;;16.78;100.00;101782.41;5019892;28;20094;-74
2023/09/05 03:11:33;;;;;;;4.28;3.63;;;;;;;16.77;100.00;101780.72;5054178;28;20040;-75
2023/09/05 03:14:01;;;;;;;4.43;3.65;;;;;;;16.76;100.00;101777.19;5049849;28;20134;-75
2023/09/05 03:16:29;;;;;;;6.97;4.60;;;;;;;16.75;100.00;101778.16;5047433;28;20071;-75
2023/09/05 03:18:59;;;;;;;7.30;4.25;;;;;;;16.74;100.00;101778.25;5050978;28;20120;-75
2023/09/05 03:21:26;;;;;;;6.47;3.72;;;;;;;16.70;100.00;101782.88;5047793;28;20064;-74
2023/09/05 03:23:55;;;;;;;4.35;3.95;;;;;;;16.66;100.00;101776.94;5048481;28;20052;-75
2023/09/05 03:26:22;;;;;;;7.70;3.88;;;;;;;16.65;100.00;101777.88;5054916;28;20044;-75
2023/09/05 03:28:50;;;;;;;4.82;3.47;;;;;;;16.65;100.00;101777.88;5034358;28;20675;-73
2023/09/05 03:31:17;;;;;;;5.30;3.67;;;;;;;16.63;100.00;101774.47;5052211;28;20091;-76
2023/09/05 03:33:45;;;;;;;5.65;4.25;;;;;;;16.63;100.00;101771.81;5034177;28;20125;-74
2023/09/05 03:36:13;;;;;;;4.30;3.42;;;;;;;16.63;100.00;101771.81;5016243;28;20041;-74
2023/09/05 03:38:40;;;;;;;3.95;3.28;;;;;;;16.64;100.00;101767.34;5032431;28;20053;-79
2023/09/05 03:41:08;;;;;;;7.47;4.88;;;;;;;16.64;100.00;101767.34;5069929;28;20044;-78
2023/09/05 03:43:36;;;;;;;7.80;4.22;;;;;;;16.66;100.00;101768.97;5037508;28;20131;-79
2023/09/05 03:46:03;;;;;;;11.00;3.80;;;;;;;16.66;100.00;101766.31;5058593;28;20044;-80
2023/09/05 03:48:32;;;;;;;3.95;3.47;;;;;;;16.66;100.00;101770.75;5050178;28;20400;-78
2023/09/05 03:51:00;;;;;;;7.25;4.10;;;;;;;16.65;100.00;101769.88;5033960;28;20048;-78
2023/09/05 03:53:27;;;;;;;5.57;3.40;;;;;;;16.64;100.00;101775.31;5033689;28;20411;-74
2023/09/05 03:55:55;;;;;;;7.68;3.65;;;;;;;16.62;100.00;101774.56;5018495;28;20079;-74
2023/09/05 03:58:23;;;;;;;7.85;3.67;;;;;;;16.60;100.00;101777.31;5032536;28;20044;-77
2023/09/05 04:00:51;;;;;;;5.30;3.33;;;;;;;16.59;100.00;101780.94;5027987;28;20088;-80
2023/09/05 04:03:19;;;;;;;4.72;4.00;;;;;;;16.56;100.00;101774.97;5050517;28;20600;-80
2023/09/05 04:05:47;;;;;;;9.07;4.20;;;;;;;16.53;100.00;101778.69;5067994;28;20433;-79
2023/09/05 04:08:16;;;;;;;6.38;3.38;;;;;;;16.49;100.00;101779.84;5051090;28;20067;-80
2023/09/05 04:10:43;;;;;;;4.85;3.88;;;;;;;16.48;100.00;101791.44;5052864;28;20053;-67
2023/09/05 04:13:11;;;;;;;5.45;3.97;;;;;;;16.46;100.00;101790.66;5061300;28;20431;-66
2023/09/05 04:15:38;;;;;;;5.93;4.00;;;;;;;16.44;100.00;101795.25;5051726;28;20056;-67
2023/09/05 04:18:08;;;;;;;5.32;3.67;;;;;;;16.44;100.00;101800.56;5061787;28;20060;-69
2023/09/05 04:20:35;;;;;;;6.28;3.97;;;;;;;16.43;100.00;101804.16;5046716;28;20056;-68
2023/09/05 04:23:02;;;;;;;7.45;3.78;;;;;;;16.43;100.00;101802.34;5050101;28;20080;-67
2023/09/05 04:25:32;;;;;;;11.75;4.35;;;;;;;16.44;100.00;101803.22;5061703;28;20059;-70
2023/09/05 04:28:00;;;;;;;19.52;5.05;;;;;;;16.45;100.00;101795.13;5047208;28;20051;-67
2023/09/05 04:30:27;;;;;;;4.65;3.92;;;;;;;16.44;100.00;101803.22;5060195;28;20052;-66
2023/09/05 04:32:54;;;;;;;4.22;3.25;;;;;;;16.42;100.00;101805.09;5062419;28;20516;-64
2023/09/05 04:35:22;;;;;;;5.80;3.70;;;;;;;16.42;100.00;101811.28;5030673;28;20084;-66
2023/09/05 04:37:51;;;;;;;5.30;4.07;;;;;;;16.42;100.00;101807.75;5066833;28;20403;-66
2023/09/05 04:40:18;;;;;;;5.38;4.13;;;;;;;16.41;100.00;101812.22;5049165;28;20257;-68
2023/09/05 04:42:46;;;;;;;5.28;3.72;;;;;;;16.39;100.00;101813.25;5064040;28;20096;-67
2023/09/05 04:45:13;;;;;;;8.45;4.22;;;;;;;16.41;100.00;101809.56;5058522;28;20080;-68
2023/09/05 04:47:41;;;;;;;5.60;3.90;;;;;;;16.39;100.00;101805.28;5062641;28;20555;-67
2023/09/05 04:50:08;;;;;;;10.80;4.05;;;;;;;16.41;100.00;101806.06;5049772;28;20114;-66
2023/09/05 04:52:36;;;;;;;8.23;3.70;;;;;;;16.41;100.00;101811.38;5026552;28;20048;-67
2023/09/05 04:55:04;;;;;;;5.35;3.78;;;;;;;16.41;100.00;101804.25;5063277;28;20068;-66
2023/09/05 04:57:31;;;;;;;5.57;3.83;;;;;;;16.42;100.00;101807.75;5045968;28;20524;-67
2023/09/05 04:59:59;;;;;;;9.65;3.60;;;;;;;16.42;100.00;101810.41;5037016;28;20048;-66
2023/09/05 05:02:28;;;;;;;5.05;3.95;;;;;;;16.44;100.00;101817.34;5040043;28;20102;-66
2023/09/05 05:04:55;;;;;;;11.38;4.18;;;;;;;16.49;100.00;101818.88;5058710;28;20135;-66
2023/09/05 05:07:23;;;;;;;5.80;4.25;;;;;;;16.49;100.00;101821.53;5043728;28;20052;-64
2023/09/05 05:09:50;;;;;;;7.05;3.97;;;;;;;16.53;100.00;101818.56;5028404;28;20076;-66
2023/09/05 05:12:17;;;;;;;6.95;4.05;;;;;;;16.56;100.00;101818.34;5044576;28;20124;-69
2023/09/05 05:14:45;;;;;;;6.28;4.30;;;;;;;16.58;100.00;101821.78;5026413;28;20488;-68
2023/09/05 05:17:12;;;;;;;25.92;7.72;;;;;;;16.55;100.00;101819.31;5028041;28;20056;-68
2023/09/05 05:19:41;;;;;;;16.85;5.75;;;;;;;16.59;100.00;101815.50;5046056;28;20132;-69
2023/09/05 05:22:10;;;;;;;12.90;5.70;;;;;;;16.64;100.00;101818.69;5058998;28;20244;-70
2023/09/05 05:24:37;;;;;;;12.27;5.25;;;;;;;16.69;100.00;101821.91;5027917;28;20099;-68
2023/09/05 05:27:05;;;;;;;15.43;4.78;;;;;;;16.70;100.00;101810.31;5021231;28;20063;-70
2023/09/05 05:29:32;;;;;;;5.57;4.22;;;;;;;16.76;99.56;101814.44;5041029;28;20052;-69
2023/09/05 05:32:02;;;;;;;6.22;4.35;;;;;;;16.80;99.03;101802.66;5065290;28;20056;-69
2023/09/05 05:34:30;;;;;;;9.70;4.25;;;;;;;16.88;98.60;101807.44;5028696;28;20056;-70
2023/09/05 05:36:57;;;;;;;7.93;4.47;;;;;;;16.92;98.11;101803.63;5066459;28;20048;-69
2023/09/05 05:39:25;;;;;;;6.88;4.40;;;;;;;16.90;97.76;101803.72;5064701;28;20114;-69
2023/09/05 05:41:53;;;;;;;10.77;5.13;;;;;;;16.99;97.45;101793.44;5034709;28;20044;-70
2023/09/05 05:44:21;;;;;;;13.80;4.80;;;;;;;17.07;97.30;101793.78;5047793;28;20052;-70
2023/09/05 05:46:48;;;;;;;11.63;5.13;;;;;;;17.10;96.99;101796.19;5060801;28;20068;-70
2023/09/05 05:49:16;;;;;;;9.35;4.20;;;;;;;17.14;96.24;101787.91;5045407;28;20072;-69
2023/09/05 05:51:43;;;;;;;6.30;4.32;;;;;;;17.15;95.92;101780.78;5058497;28;20558;-70
2023/09/05 05:54:10;;;;;;;8.02;4.13;;;;;;;17.12;95.40;101773.03;5049388;28;20075;-69
2023/09/05 05:56:38;;;;;;;7.32;4.20;;;;;;;17.12;95.76;101779.19;5043072;28;20083;-69
2023/09/05 05:59:06;;;;;;;5.90;3.78;;;;;;;17.11;95.45;101780.16;5045303;28;20087;-69
2023/09/05 06:01:34;;;;;;;6.53;3.67;;;;;;;17.19;95.26;101787.59;5027881;28;20136;-73
2023/09/05 06:04:02;;;;;;;8.48;4.47;;;;;;;17.24;95.07;101793.44;5027673;28;20045;-70
2023/09/05 06:06:30;;;;;;;12.13;3.85;;;;;;;17.31;94.47;101784.09;5058046;28;20690;-70
2023/09/05 06:08:58;;;;;;;5.97;4.03;;;;;;;17.38;93.66;101795.16;5055853;28;20442;-70
2023/09/05 06:11:26;;;;;;;10.18;4.15;;;;;;;17.48;93.37;101785.59;5061300;28;20084;-69
2023/09/05 06:13:53;;;;;;;7.95;4.13;;;;;;;17.58;92.31;101777.81;5054060;28;20763;-70
2023/09/05 06:16:20;;;;;;;9.27;4.22;;;;;;;17.67;91.83;101791.34;5063518;28;20135;-70
2023/09/05 06:18:48;;;;;;;8.88;4.43;;;;;;;17.70;90.98;101791.13;5050224;28;20036;-69
2023/09/05 06:21:15;;;;;;;9.60;4.13;;;;;;;17.72;90.83;101791.00;5034574;28;20052;-68
2023/09/05 06:23:43;;;;;;;6.93;4.45;;;;;;;17.78;90.35;101789.75;5069532;28;20062;-69
2023/09/05 06:26:10;;;;;;;6.15;3.60;;;;;;;18.01;90.01;101790.78;5027830;28;20384;-70
2023/09/05 06:28:37;;;;;;;8.35;3.85;;;;;;;18.13;88.46;101798.75;5065552;28;20083;-70
2023/09/05 06:31:05;;;;;;;4.70;3.30;;;;;;;18.35;87.12;101791.88;5047915;28;20044;-69
2023/09/05 06:33:33;;;;;;;7.38;4.05;;;;;;;18.53;86.46;101795.84;5032517;28;20067;-70
2023/09/05 06:36:11;;;;;;;8.10;4.25;;;;;;;18.70;85.33;101789.28;5047515;28;20076;-70
2023/09/05 06:38:39;;;;;;;4.75;3.17;;;;;;;18.79;84.12;101793.09;5047437;28;20049;-69
2023/09/05 06:41:07;;;;;;;5.82;3.40;;;;;;;18.95;83.20;101793.63;5037763;28;20052;-69
2023/09/05 06:43:35;;;;;;;5.50;3.55;;;;;;;18.99;81.85;101787.09;5033330;28;20057;-70
2023/09/05 06:46:07;;;;;;;8.05;3.90;;;;;;;19.04;81.53;101795.59;5048574;28;21191;-69
2023/09/05 06:48:36;;;;;;;6.50;3.35;;;;;;;19.04;81.10;101790.25;5029576;28;20053;-69
2023/09/05 06:51:03;;;;;;;7.40;3.25;;;;;;;19.10;80.64;101797.81;5041406;28;20523;-70
2023/09/05 06:53:32;;;;;;;8.70;3.67;;;;;;;19.09;79.90;101798.78;5030112;28;20080;-69
2023/09/05 06:55:59;;;;;;;7.88;3.75;;;;;;;19.07;79.85;101802.53;5064342;28;20086;-70
2023/09/05 06:58:27;;;;;;;9.10;3.22;;;;;;;19.11;78.92;101806.66;5042712;28;20500;-69
2023/09/05 07:00:55;;;;;;;9.27;3.63;;;;;;;19.10;78.82;101805.81;5046496;28;20130;-69
2023/09/05 07:03:26;;;;;;;5.85;3.33;;;;;;;19.16;78.71;101809.84;5049838;28;20145;-69
2023/09/05 07:05:54;;;;;;;11.77;4.07;;;;;;;19.35;78.30;101806.59;5065018;28;20507;-69
2023/09/05 07:08:33;;;;;;;8.48;4.05;;;;;;;19.47;77.28;101795.81;5047403;28;20061;-70
2023/09/05 07:11:01;;;;;;;4.60;2.75;;;;;;;19.64;76.20;101797.22;5042239;28;20088;-70
2023/09/05 07:13:28;;;;;;;8.70;3.58;;;;;;;19.85;75.03;101796.47;5045736;28;20063;-69
2023/09/05 07:15:57;;;;;;;6.78;3.55;;;;;;;19.91;74.42;101798.66;5043830;28;20056;-69
2023/09/05 07:18:25;;;;;;;7.35;2.83;;;;;;;19.99;73.32;101809.56;5047948;28;20102;-68
2023/09/05 07:20:53;;;;;;;7.63;2.63;;;;;;;20.07;71.71;101811.63;5065462;28;20053;-68
2023/09/05 07:23:20;;;;;;;8.10;3.00;;;;;;;20.15;71.96;101812.72;5069556;28;20550;-69
2023/09/05 07:25:47;;;;;;;5.82;2.67;;;;;;;20.38;71.66;101810.00;5070350;28;20049;-70
2023/09/05 07:28:15;;;;;;;9.38;3.15;;;;;;;20.57;70.71;101812.91;5046122;28;20088;-69
2023/09/05 07:30:42;;;;;;;4.97;2.72;;;;;;;20.72;70.24;101822.34;5048750;28;20123;-69
2023/09/05 07:33:10;;;;;;;6.90;3.17;;;;;;;20.78;68.81;101822.81;5068474;28;20044;-70
2023/09/05 07:35:38;;;;;;;7.85;2.95;;;;;;;20.76;67.43;101822.97;5068272;28;20053;-70
2023/09/05 07:38:05;;;;;;;8.35;3.00;;;;;;;20.85;67.13;101824.88;5063684;28;20060;-70
2023/09/05 07:40:32;;;;;;;5.30;2.40;;;;;;;20.76;66.92;101830.09;5047395;28;20055;-70
2023/09/05 07:43:00;;;;;;;7.43;2.78;;;;;;;20.82;66.65;101830.47;5069295;28;20075;-69
2023/09/05 07:45:28;;;;;;;6.43;2.65;;;;;;;20.84;66.12;101828.50;5032217;28;20083;-70
2023/09/05 07:47:55;;;;;;;4.18;2.63;;;;;;;20.93;66.47;101837.59;5032491;28;20083;-69
2023/09/05 07:50:23;;;;;;;3.70;2.85;;;;;;;20.96;65.65;101830.16;5065178;28;20072;-69
2023/09/05 07:52:50;;;;;;;11.40;3.47;;;;;;;20.91;66.18;101832.38;5050671;28;20051;-70
2023/09/05 07:55:18;;;;;;;7.78;3.15;;;;;;;20.98;65.93;101830.00;5028318;28;20048;-70
2023/09/05 07:57:45;;;;;;;4.95;2.67;;;;;;;21.01;66.20;101829.78;5047514;28;20713;-69
2023/09/05 08:00:16;;;;;;;6.15;2.47;;;;;;;21.02;65.35;101826.09;5066319;28;20053;-69
2023/09/05 08:02:44;;;;;;;6.80;2.97;;;;;;;21.23;65.11;101824.31;5065215;28;20083;-69
2023/09/05 08:05:12;;;;;;;8.40;3.40;;;;;;;21.30;65.29;101826.44;5066749;28;20048;-69
2023/09/05 08:07:40;;;;;;;5.95;3.35;;;;;;;21.34;64.83;101823.41;5052239;28;20091;-68
2023/09/05 08:10:08;;;;;;;5.45;2.58;;;;;;;21.47;64.87;101818.69;5066228;28;20749;-69
2023/09/05 08:12:35;;;;;;;6.65;2.80;;;;;;;21.65;63.93;101818.09;5034310;28;20080;-69
2023/09/05 08:15:05;;;;;;;4.38;2.17;;;;;;;21.64;62.79;101819.06;5051185;28;20044;-69
2023/09/05 08:17:32;;;;;;;8.82;2.63;;;;;;;21.69;63.00;101816.84;5060240;28;20045;-69
2023/09/05 08:20:00;;;;;;;9.25;2.92;;;;;;;21.80;62.99;101822.13;5051228;28;20140;-69
2023/09/05 08:22:27;;;;;;;7.82;2.47;;;;;;;21.95;62.02;101814.56;5033189;28;20143;-69
2023/09/05 08:24:55;;;;;;;8.48;2.15;;;;;;;22.10;62.02;101817.72;5034298;28;20045;-70
2023/09/05 08:27:28;;;;;;;7.07;2.25;;;;;;;22.19;61.03;101806.19;5070547;28;20075;-69
2023/09/05 08:29:57;;;;;;;4.70;2.45;;;;;;;22.27;60.37;101809.03;5067991;28;20063;-70
2023/09/05 08:32:25;;;;;;;10.63;2.53;;;;;;;22.27;61.09;101813.56;5047238;28;20102;-69
2023/09/05 08:34:52;;;;;;;4.45;2.20;;;;;;;22.39;59.16;101813.31;5045339;28;20147;-68
2023/09/05 08:37:20;;;;;;;7.57;2.80;;;;;;;22.47;59.22;101810.78;5048586;28;20060;-68
2023/09/05 08:39:48;;;;;;;6.38;2.25;;;;;;;22.64;59.62;101811.91;5061035;28;20090;-69
2023/09/05 08:42:15;;;;;;;5.75;3.13;;;;;;;22.81;58.75;101807.69;5048736;28;20049;-70
2023/09/05 08:44:43;;;;;;;7.70;2.72;;;;;;;22.90;57.82;101806.88;5048514;28;20068;-70
2023/09/05 08:47:13;;;;;;;7.00;3.00;;;;;;;23.02;56.89;101809.44;5060222;28;20490;-69
2023/09/05 08:49:41;;;;;;;8.50;2.60;;;;;;;23.13;56.73;101814.63;5049307;28;20040;-70
2023/09/05 08:52:09;;;;;;;7.00;2.53;;;;;;;23.14;56.21;101802.88;5067326;28;20475;-69
2023/09/05 08:54:37;;;;;;;5.60;2.15;;;;;;;23.11;56.31;101803.19;5051543;28;20568;-69
2023/09/05 08:57:05;;;;;;;4.15;2.35;;;;;;;23.33;56.07;101812.78;5046493;28;20075;-69
2023/09/05 08:59:32;;;;;;;6.65;2.22;;;;;;;23.35;54.97;101818.84;5032145;28;20118;-69
2023/09/05 09:02:00;;;;;;;3.97;2.55;;;;;;;23.31;55.16;101806.69;5052857;28;20572;-70
2023/09/05 09:04:28;;;;;;;4.43;2.22;;;;;;;23.33;55.15;101812.78;5066342;28;20155;-70
2023/09/05 09:06:57;;;;;;;4.85;2.25;;;;;;;23.59;55.54;101813.81;5065875;28;20139;-70
2023/09/05 09:09:35;;;;;;;7.93;3.20;;;;;;;23.67;54.51;101805.91;5049276;28;20090;-70
2023/09/05 09:12:03;;;;;;;9.02;2.10;;;;;;;23.84;53.90;101800.75;5039856;28;20471;-69
2023/09/05 09:14:31;;;;;;;5.70;2.17;;;;;;;23.88;52.95;101794.91;5063194;28;20052;-69
2023/09/05 09:17:00;;;;;;;5.45;2.30;;;;;;;23.94;52.62;101788.09;5030127;28;20048;-69
2023/09/05 09:19:31;;;;;;;7.32;2.13;;;;;;;23.91;53.01;101796.44;5049031;28;20166;-69
2023/09/05 09:22:03;;;;;;;4.68;1.95;;;;;;;24.01;51.65;101791.88;5046398;28;20327;-70
2023/09/05 09:24:34;;;;;;;7.75;2.40;;;;;;;24.06;52.22;101800.34;5045635;28;20049;-69
2023/09/05 09:27:03;;;;;;;3.83;1.85;;;;;;;24.15;52.21;101787.84;5066946;28;20755;-69
2023/09/05 09:29:32;;;;;;;3.00;1.80;;;;;;;24.15;51.50;101783.31;5047312;28;20048;-69
2023/09/05 09:32:04;;;;;;;3.95;1.80;;;;;;;24.21;51.22;101784.53;5069627;28;20048;-69
2023/09/05 09:34:34;;;;;;;5.35;1.92;;;;;;;24.37;51.13;101783.91;5064484;28;20098;-68
2023/09/05 09:37:01;;;;;;;3.25;1.70;;;;;;;24.44;50.19;101784.97;5049324;28;20056;-69
2023/09/05 09:39:30;;;;;;;4.18;2.10;;;;;;;24.42;50.46;101773.53;5046324;28;20076;-69
2023/09/05 09:42:01;;;;;;;3.70;1.55;;;;;;;24.65;50.25;101782.84;5030698;28;20463;-69
2023/09/05 09:44:32;;;;;;;6.90;1.73;;;;;;;24.65;48.99;101769.38;5047752;28;20049;-70
2023/09/05 09:47:01;;;;;;;3.97;2.03;;;;;;;24.65;49.65;101772.06;5044637;28;20048;-69
2023/09/05 09:49:29;;;;;;;5.75;1.83;;;;;;;24.83;49.75;101761.28;5061194;28;20419;-69
2023/09/05 09:52:03;;;;;;;2.88;1.63;;;;;;;25.11;48.88;101761.19;5046526;28;20123;-69
2023/09/05 09:54:37;;;;;;;5.63;1.75;;;;;;;25.08;48.54;101764.19;5045453;28;20059;-69
2023/09/05 09:57:06;;;;;;;1.73;1.25;;;;;;;25.02;47.43;101761.09;5035059;28;20167;-68
2023/09/05 09:59:36;;;;;;;5.32;1.77;;;;;;;25.04;48.12;101754.69;5063291;28;20079;-68
2023/09/05 10:02:04;;;;;;;2.97;1.70;;;;;;;25.07;48.28;101757.09;5025018;28;20187;-69
2023/09/05 10:04:33;;;;;;;3.78;1.52;;;;;;;25.15;47.73;101759.88;5058871;28;20124;-68
2023/09/05 10:07:02;;;;;;;5.15;1.60;;;;;;;25.11;48.51;101756.63;5045727;28;20140;-70
2023/09/05 10:09:30;;;;;;;5.43;2.10;;;;;;;25.05;48.53;101759.09;5062871;28;20092;-69
2023/09/05 10:12:00;;;;;;;1.70;1.17;;;;;;;25.23;47.70;101752.69;5043751;28;20581;-69
2023/09/05 10:14:29;;;;;;;1.92;1.20;;;;;;;25.37;46.92;101750.41;5065093;28;20568;-68
2023/09/05 10:16:58;;;;;;;3.28;1.58;;;;;;;25.50;47.51;101758.91;5047271;28;20056;-69
2023/09/05 10:19:25;;;;;;;3.08;1.60;;;;;;;25.42;47.11;101748.91;5065278;28;20140;-69
2023/09/05 10:21:55;;;;;;;2.80;1.52;;;;;;;25.51;46.90;101739.88;5060692;28;20059;-69
2023/09/05 10:24:25;;;;;;;4.82;1.60;;;;;;;25.71;46.93;101740.47;5031427;28;20386;-69
2023/09/05 10:26:52;;;;;;;8.05;1.85;;;;;;;25.65;46.66;101732.16;5028434;28;20537;-69
2023/09/05 10:29:42;;;;;;;3.60;1.65;;;;;;;25.64;47.53;101725.94;5065884;28;20171;-69
2023/09/05 10:32:18;;;;;;;5.30;2.00;;;;;;;25.78;47.16;101732.59;5047859;28;20127;-68
2023/09/05 10:34:45;;;;;;;5.03;1.50;;;;;;;25.95;48.04;101725.41;5047800;28;20061;-68
2023/09/05 10:37:26;;;;;;;7.53;2.00;;;;;;;26.10;46.77;101729.16;5063885;28;20056;-68
2023/09/05 10:39:55;;;;;;;4.65;1.55;;;;;;;26.13;46.89;101728.81;5042178;28;20413;-70
2023/09/05 10:42:31;;;;;;;7.40;1.92;;;;;;;26.27;46.67;101717.38;5026940;28;20135;-69
2023/09/05 10:45:00;;;;;;;3.15;1.52;;;;;;;26.36;46.19;101712.00;5047448;28;20068;-69
2023/09/05 10:47:29;;;;;;;2.83;1.65;;;;;;;26.50;46.76;101714.06;5063743;28;20499;-70
2023/09/05 10:50:03;;;;;;;5.47;2.00;;;;;;;26.31;45.79;101708.94;5047620;28;20064;-69
2023/09/05 10:52:30;;;;;;;6.93;1.60;;;;;;;26.48;45.98;101705.28;5062520;28;20053;-68
2023/09/05 10:54:59;;;;;;;4.18;1.35;;;;;;;26.53;45.74;101720.97;5049742;28;20605;-69
2023/09/05 10:57:37;;;;;;;6.03;1.67;;;;;;;26.68;45.26;101711.19;5054800;28;20044;-68
2023/09/05 11:00:13;;;;;;;2.80;1.52;;;;;;;26.73;44.93;101715.06;5042894;28;20245;-69
2023/09/05 11:02:45;;;;;;;2.20;1.63;;;;;;;26.80;44.93;101715.22;5060178;28;20068;-70
2023/09/05 11:05:18;;;;;;;2.33;1.55;;;;;;;26.94;44.15;101717.25;5061973;28;20139;-70
2023/09/05 11:07:50;;;;;;;4.32;1.60;;;;;;;27.12;43.82;101717.06;5049616;28;20053;-69
2023/09/05 11:10:38;;;;;;;5.78;1.58;;;;;;;27.27;43.47;101696.41;5066945;28;20492;-69
2023/09/05 11:13:08;;;;;;;2.35;1.27;;;;;;;27.58;42.77;101700.19;5031073;28;20052;-70
2023/09/05 11:15:39;;;;;;;4.00;1.75;;;;;;;27.70;42.60;101705.03;5052052;28;20098;-68
2023/09/05 11:18:09;;;;;;;3.00;1.48;;;;;;;27.91;42.38;101698.19;5015420;28;20044;-69
2023/09/05 11:20:41;;;;;;;3.35;1.52;;;;;;;28.14;41.42;101696.31;5049303;28;20040;-69
2023/09/05 11:23:17;;;;;;;2.63;1.70;;;;;;;27.93;41.58;101701.56;5032542;28;20048;-69
2023/09/05 11:25:50;;;;;;;3.20;1.40;;;;;;;27.90;41.53;101699.19;5031169;28;20052;-71
2023/09/05 11:28:19;;;;;;;2.92;1.50;;;;;;;27.75;42.17;101689.13;5063411;28;20554;-73
2023/09/05 11:30:47;;;;;;;2.97;1.55;;;;;;;27.68;41.85;101693.53;5014976;28;20106;-73